sensor_id;sensor_type;location;lat;lon;timestamp;P1;durP1;ratioP1;P2;durP2;ratioP2
19810;SDS011;10065;49.632;8.346;2023-03-20T00:01:55;5.67;;;3.47;;
19810;SDS011;10065;49.632;8.346;2023-03-20T00:04:23;4.77;;;3.20;;
19810;SDS011;10065;49.632;8.346;2023-03-20T00:06:52;5.57;;;3.60;;
19810;SDS011;10065;49.632;8.346;2023-03-20T00:09:19;5.00;;;3.60;;
19810;SDS011;10065;49.632;8.346;2023-03-20T00:11:47;5.67;;;3.80;;
19810;SDS011;10065;49.632;8.346;2023-03-20T00:14:17;5.80;;;3.50;;
19810;SDS011;10065;49.632;8.346;2023-03-20T00:16:47;5.10;;;3.73;;
19810;SDS011;10065;49.632;8.346;2023-03-20T00:19:17;5.07;;;3.90;;
19810;SDS011;10065;49.632;8.346;2023-03-20T00:21:47;5.40;;;3.60;;
19810;SDS011;10065;49.632;8.346;2023-03-20T00:24:17;6.00;;;3.97;;
19810;SDS011;10065;49.632;8.346;2023-03-20T00:26:45;5.70;;;3.73;;
19810;SDS011;10065;49.632;8.346;2023-03-20T00:29:16;5.03;;;3.30;;
19810;SDS011;10065;49.632;8.346;2023-03-20T00:31:48;6.03;;;3.90;;
19810;SDS011;10065;49.632;8.346;2023-03-20T00:34:18;8.03;;;4.27;;
19810;SDS011;10065;49.632;8.346;2023-03-20T00:36:50;5.13;;;3.40;;
19810;SDS011;10065;49.632;8.346;2023-03-20T00:39:18;5.13;;;3.60;;
19810;SDS011;10065;49.632;8.346;2023-03-20T00:41:47;6.93;;;4.30;;
19810;SDS011;10065;49.632;8.346;2023-03-20T00:44:19;6.20;;;4.37;;
19810;SDS011;10065;49.632;8.346;2023-03-20T00:46:49;7.10;;;4.50;;
19810;SDS011;10065;49.632;8.346;2023-03-20T00:49:20;7.83;;;4.43;;
19810;SDS011;10065;49.632;8.346;2023-03-20T00:51:53;5.90;;;3.93;;
19810;SDS011;10065;49.632;8.346;2023-03-20T00:54:20;8.93;;;4.10;;
19810;SDS011;10065;49.632;8.346;2023-03-20T00:56:49;7.83;;;4.53;;
19810;SDS011;10065;49.632;8.346;2023-03-20T00:59:21;5.87;;;4.10;;
19810;SDS011;10065;49.632;8.346;2023-03-20T01:01:52;9.47;;;4.90;;
19810;SDS011;10065;49.632;8.346;2023-03-20T01:04:19;7.73;;;4.47;;
19810;SDS011;10065;49.632;8.346;2023-03-20T01:06:48;6.67;;;4.30;;
19810;SDS011;10065;49.632;8.346;2023-03-20T01:09:17;6.77;;;4.63;;
19810;SDS011;10065;49.632;8.346;2023-03-20T01:11:45;6.47;;;4.30;;
19810;SDS011;10065;49.632;8.346;2023-03-20T01:14:13;5.60;;;4.07;;
19810;SDS011;10065;49.632;8.346;2023-03-20T01:16:43;7.90;;;4.53;;
19810;SDS011;10065;49.632;8.346;2023-03-20T01:19:11;7.20;;;4.30;;
19810;SDS011;10065;49.632;8.346;2023-03-20T01:21:40;5.63;;;3.90;;
19810;SDS011;10065;49.632;8.346;2023-03-20T01:24:08;5.63;;;4.07;;
19810;SDS011;10065;49.632;8.346;2023-03-20T01:26:38;6.13;;;4.03;;
19810;SDS011;10065;49.632;8.346;2023-03-20T01:29:11;7.50;;;4.00;;
19810;SDS011;10065;49.632;8.346;2023-03-20T01:31:44;8.50;;;4.57;;
19810;SDS011;10065;49.632;8.346;2023-03-20T01:34:12;5.00;;;3.20;;
19810;SDS011;10065;49.632;8.346;2023-03-20T01:36:42;7.00;;;3.87;;
19810;SDS011;10065;49.632;8.346;2023-03-20T01:39:12;5.83;;;3.23;;
19810;SDS011;10065;49.632;8.346;2023-03-20T01:41:42;5.97;;;3.70;;
19810;SDS011;10065;49.632;8.346;2023-03-20T01:44:15;5.67;;;3.77;;
19810;SDS011;10065;49.632;8.346;2023-03-20T01:46:47;6.53;;;4.07;;
19810;SDS011;10065;49.632;8.346;2023-03-20T01:52:17;7.40;;;5.00;;
19810;SDS011;10065;49.632;8.346;2023-03-20T01:54:44;8.90;;;6.20;;
19810;SDS011;10065;49.632;8.346;2023-03-20T01:57:14;9.43;;;6.23;;
19810;SDS011;10065;49.632;8.346;2023-03-20T01:59:45;10.33;;;7.27;;
19810;SDS011;10065;49.632;8.346;2023-03-20T02:02:17;15.97;;;7.30;;
19810;SDS011;10065;49.632;8.346;2023-03-20T02:04:48;9.77;;;7.17;;
19810;SDS011;10065;49.632;8.346;2023-03-20T02:07:20;11.53;;;7.67;;
19810;SDS011;10065;49.632;8.346;2023-03-20T02:09:49;11.77;;;8.50;;
19810;SDS011;10065;49.632;8.346;2023-03-20T02:12:19;16.27;;;9.13;;
19810;SDS011;10065;49.632;8.346;2023-03-20T02:14:48;14.77;;;9.37;;
19810;SDS011;10065;49.632;8.346;2023-03-20T02:17:18;12.03;;;8.23;;
19810;SDS011;10065;49.632;8.346;2023-03-20T02:19:49;14.60;;;9.10;;
19810;SDS011;10065;49.632;8.346;2023-03-20T02:22:29;13.10;;;8.70;;
19810;SDS011;10065;49.632;8.346;2023-03-20T02:25:21;14.17;;;9.67;;
19810;SDS011;10065;49.632;8.346;2023-03-20T02:28:14;15.93;;;11.00;;
19810;SDS011;10065;49.632;8.346;2023-03-20T02:31:13;15.73;;;10.97;;
19810;SDS011;10065;49.632;8.346;2023-03-20T02:37:50;15.93;;;11.43;;
19810;SDS011;10065;49.632;8.346;2023-03-20T02:40:29;18.53;;;12.43;;
19810;SDS011;10065;49.632;8.346;2023-03-20T02:43:07;16.13;;;11.40;;
19810;SDS011;10065;49.632;8.346;2023-03-20T02:45:45;16.60;;;11.27;;
19810;SDS011;10065;49.632;8.346;2023-03-20T02:48:20;15.10;;;10.93;;
19810;SDS011;10065;49.632;8.346;2023-03-20T02:51:00;16.03;;;11.73;;
19810;SDS011;10065;49.632;8.346;2023-03-20T02:53:35;15.43;;;10.83;;
19810;SDS011;10065;49.632;8.346;2023-03-20T02:56:13;18.07;;;12.03;;
19810;SDS011;10065;49.632;8.346;2023-03-20T02:58:46;16.70;;;11.77;;
19810;SDS011;10065;49.632;8.346;2023-03-20T03:01:19;17.87;;;11.00;;
19810;SDS011;10065;49.632;8.346;2023-03-20T03:03:52;16.53;;;11.40;;
19810;SDS011;10065;49.632;8.346;2023-03-20T03:06:23;17.33;;;12.43;;
19810;SDS011;10065;49.632;8.346;2023-03-20T03:08:57;18.30;;;12.20;;
19810;SDS011;10065;49.632;8.346;2023-03-20T03:11:29;19.47;;;11.77;;
19810;SDS011;10065;49.632;8.346;2023-03-20T03:14:00;18.73;;;12.40;;
19810;SDS011;10065;49.632;8.346;2023-03-20T03:16:31;17.23;;;12.27;;
19810;SDS011;10065;49.632;8.346;2023-03-20T03:19:03;17.20;;;11.83;;
19810;SDS011;10065;49.632;8.346;2023-03-20T03:21:34;19.43;;;11.50;;
19810;SDS011;10065;49.632;8.346;2023-03-20T03:24:13;16.63;;;11.20;;
19810;SDS011;10065;49.632;8.346;2023-03-20T03:27:06;18.60;;;12.60;;
19810;SDS011;10065;49.632;8.346;2023-03-20T03:29:39;17.87;;;11.93;;
19810;SDS011;10065;49.632;8.346;2023-03-20T03:32:18;18.33;;;12.90;;
19810;SDS011;10065;49.632;8.346;2023-03-20T03:34:51;17.10;;;12.40;;
19810;SDS011;10065;49.632;8.346;2023-03-20T03:37:22;21.47;;;12.77;;
19810;SDS011;10065;49.632;8.346;2023-03-20T03:39:59;19.33;;;12.60;;
19810;SDS011;10065;49.632;8.346;2023-03-20T03:42:37;18.87;;;12.67;;
19810;SDS011;10065;49.632;8.346;2023-03-20T03:45:08;19.23;;;12.90;;
19810;SDS011;10065;49.632;8.346;2023-03-20T03:47:41;17.77;;;11.90;;
19810;SDS011;10065;49.632;8.346;2023-03-20T03:50:14;19.77;;;13.00;;
19810;SDS011;10065;49.632;8.346;2023-03-20T03:52:46;19.07;;;12.77;;
19810;SDS011;10065;49.632;8.346;2023-03-20T03:55:20;19.23;;;12.53;;
19810;SDS011;10065;49.632;8.346;2023-03-20T03:57:53;19.33;;;12.50;;
19810;SDS011;10065;49.632;8.346;2023-03-20T04:00:25;18.80;;;13.50;;
19810;SDS011;10065;49.632;8.346;2023-03-20T04:02:55;19.83;;;12.97;;
19810;SDS011;10065;49.632;8.346;2023-03-20T04:05:25;19.20;;;12.23;;
19810;SDS011;10065;49.632;8.346;2023-03-20T04:08:00;21.23;;;14.10;;
19810;SDS011;10065;49.632;8.346;2023-03-20T04:10:30;21.43;;;14.60;;
19810;SDS011;10065;49.632;8.346;2023-03-20T04:12:58;22.33;;;14.60;;
19810;SDS011;10065;49.632;8.346;2023-03-20T04:15:25;22.67;;;13.90;;
19810;SDS011;10065;49.632;8.346;2023-03-20T04:17:54;21.23;;;13.77;;
19810;SDS011;10065;49.632;8.346;2023-03-20T04:20:22;23.47;;;15.47;;
19810;SDS011;10065;49.632;8.346;2023-03-20T04:22:49;20.97;;;13.67;;
19810;SDS011;10065;49.632;8.346;2023-03-20T04:25:18;22.50;;;14.90;;
19810;SDS011;10065;49.632;8.346;2023-03-20T04:27:48;23.83;;;14.47;;
19810;SDS011;10065;49.632;8.346;2023-03-20T04:30:16;22.27;;;14.23;;
19810;SDS011;10065;49.632;8.346;2023-03-20T04:32:44;26.40;;;15.20;;
19810;SDS011;10065;49.632;8.346;2023-03-20T04:35:12;24.40;;;14.47;;
19810;SDS011;10065;49.632;8.346;2023-03-20T04:37:40;23.03;;;14.67;;
19810;SDS011;10065;49.632;8.346;2023-03-20T04:40:08;24.13;;;14.63;;
19810;SDS011;10065;49.632;8.346;2023-03-20T04:42:37;24.33;;;15.17;;
19810;SDS011;10065;49.632;8.346;2023-03-20T04:45:07;23.00;;;15.20;;
19810;SDS011;10065;49.632;8.346;2023-03-20T04:47:35;21.67;;;14.37;;
19810;SDS011;10065;49.632;8.346;2023-03-20T04:50:03;21.37;;;14.33;;
19810;SDS011;10065;49.632;8.346;2023-03-20T04:52:32;21.63;;;14.07;;
19810;SDS011;10065;49.632;8.346;2023-03-20T04:55:00;24.83;;;15.50;;
19810;SDS011;10065;49.632;8.346;2023-03-20T04:57:27;22.00;;;14.13;;
19810;SDS011;10065;49.632;8.346;2023-03-20T04:59:57;24.13;;;15.20;;
19810;SDS011;10065;49.632;8.346;2023-03-20T05:02:26;24.27;;;14.43;;
19810;SDS011;10065;49.632;8.346;2023-03-20T05:04:53;25.33;;;16.20;;
19810;SDS011;10065;49.632;8.346;2023-03-20T05:07:21;24.40;;;15.57;;
19810;SDS011;10065;49.632;8.346;2023-03-20T05:09:49;24.17;;;15.80;;
19810;SDS011;10065;49.632;8.346;2023-03-20T05:12:16;26.57;;;16.60;;
19810;SDS011;10065;49.632;8.346;2023-03-20T05:14:44;25.33;;;15.63;;
19810;SDS011;10065;49.632;8.346;2023-03-20T05:17:12;26.40;;;16.73;;
19810;SDS011;10065;49.632;8.346;2023-03-20T05:19:41;24.43;;;15.47;;
19810;SDS011;10065;49.632;8.346;2023-03-20T05:22:09;25.63;;;15.70;;
19810;SDS011;10065;49.632;8.346;2023-03-20T05:24:37;28.30;;;15.43;;
19810;SDS011;10065;49.632;8.346;2023-03-20T05:27:05;26.30;;;15.63;;
19810;SDS011;10065;49.632;8.346;2023-03-20T05:29:32;24.77;;;16.13;;
19810;SDS011;10065;49.632;8.346;2023-03-20T05:32:00;26.90;;;16.97;;
19810;SDS011;10065;49.632;8.346;2023-03-20T05:34:28;25.17;;;16.37;;
19810;SDS011;10065;49.632;8.346;2023-03-20T05:36:57;27.67;;;17.03;;
19810;SDS011;10065;49.632;8.346;2023-03-20T05:39:25;29.03;;;17.00;;
19810;SDS011;10065;49.632;8.346;2023-03-20T05:41:53;25.43;;;16.77;;
19810;SDS011;10065;49.632;8.346;2023-03-20T05:44:21;26.37;;;15.77;;
19810;SDS011;10065;49.632;8.346;2023-03-20T05:46:49;22.87;;;15.00;;
19810;SDS011;10065;49.632;8.346;2023-03-20T05:49:16;24.23;;;14.43;;
19810;SDS011;10065;49.632;8.346;2023-03-20T05:51:44;23.67;;;15.07;;
19810;SDS011;10065;49.632;8.346;2023-03-20T05:54:13;25.73;;;16.47;;
19810;SDS011;10065;49.632;8.346;2023-03-20T05:56:41;24.53;;;14.73;;
19810;SDS011;10065;49.632;8.346;2023-03-20T05:59:10;24.03;;;16.03;;
19810;SDS011;10065;49.632;8.346;2023-03-20T06:01:38;24.13;;;15.47;;
19810;SDS011;10065;49.632;8.346;2023-03-20T06:04:06;24.00;;;15.17;;
19810;SDS011;10065;49.632;8.346;2023-03-20T06:06:34;27.63;;;15.87;;
19810;SDS011;10065;49.632;8.346;2023-03-20T06:09:03;22.83;;;15.63;;
19810;SDS011;10065;49.632;8.346;2023-03-20T06:11:32;22.77;;;15.03;;
19810;SDS011;10065;49.632;8.346;2023-03-20T06:14:02;22.57;;;14.87;;
19810;SDS011;10065;49.632;8.346;2023-03-20T06:16:30;22.67;;;14.83;;
19810;SDS011;10065;49.632;8.346;2023-03-20T06:18:58;23.57;;;14.80;;
19810;SDS011;10065;49.632;8.346;2023-03-20T06:21:26;20.50;;;14.30;;
19810;SDS011;10065;49.632;8.346;2023-03-20T06:23:54;21.90;;;15.30;;
19810;SDS011;10065;49.632;8.346;2023-03-20T06:26:21;22.50;;;15.27;;
19810;SDS011;10065;49.632;8.346;2023-03-20T06:28:50;24.20;;;14.33;;
19810;SDS011;10065;49.632;8.346;2023-03-20T06:31:18;25.40;;;16.30;;
19810;SDS011;10065;49.632;8.346;2023-03-20T06:33:46;22.07;;;15.30;;
19810;SDS011;10065;49.632;8.346;2023-03-20T06:36:14;24.33;;;15.23;;
19810;SDS011;10065;49.632;8.346;2023-03-20T06:38:41;24.13;;;15.73;;
19810;SDS011;10065;49.632;8.346;2023-03-20T06:41:09;26.30;;;16.87;;
19810;SDS011;10065;49.632;8.346;2023-03-20T06:43:46;23.70;;;15.53;;
19810;SDS011;10065;49.632;8.346;2023-03-20T06:46:15;21.60;;;15.23;;
19810;SDS011;10065;49.632;8.346;2023-03-20T06:48:43;26.20;;;16.13;;
19810;SDS011;10065;49.632;8.346;2023-03-20T06:51:17;25.03;;;15.23;;
19810;SDS011;10065;49.632;8.346;2023-03-20T06:53:44;27.23;;;16.47;;
19810;SDS011;10065;49.632;8.346;2023-03-20T06:56:12;25.07;;;16.37;;
19810;SDS011;10065;49.632;8.346;2023-03-20T06:58:40;29.70;;;17.60;;
19810;SDS011;10065;49.632;8.346;2023-03-20T07:01:08;27.40;;;17.80;;
19810;SDS011;10065;49.632;8.346;2023-03-20T07:03:42;24.43;;;15.47;;
19810;SDS011;10065;49.632;8.346;2023-03-20T07:06:10;28.80;;;16.90;;
19810;SDS011;10065;49.632;8.346;2023-03-20T07:08:38;28.93;;;18.57;;
19810;SDS011;10065;49.632;8.346;2023-03-20T07:11:06;35.73;;;22.33;;
19810;SDS011;10065;49.632;8.346;2023-03-20T07:13:34;32.70;;;19.30;;
19810;SDS011;10065;49.632;8.346;2023-03-20T07:16:03;38.20;;;23.20;;
19810;SDS011;10065;49.632;8.346;2023-03-20T07:18:31;29.13;;;17.23;;
19810;SDS011;10065;49.632;8.346;2023-03-20T07:21:01;31.97;;;20.00;;
19810;SDS011;10065;49.632;8.346;2023-03-20T07:23:48;28.30;;;17.87;;
19810;SDS011;10065;49.632;8.346;2023-03-20T07:26:16;31.30;;;17.50;;
19810;SDS011;10065;49.632;8.346;2023-03-20T07:28:43;33.03;;;19.07;;
19810;SDS011;10065;49.632;8.346;2023-03-20T07:31:16;28.33;;;16.67;;
19810;SDS011;10065;49.632;8.346;2023-03-20T07:33:46;25.87;;;16.80;;
19810;SDS011;10065;49.632;8.346;2023-03-20T07:36:15;35.73;;;19.00;;
19810;SDS011;10065;49.632;8.346;2023-03-20T07:38:43;28.30;;;18.40;;
19810;SDS011;10065;49.632;8.346;2023-03-20T07:41:11;34.67;;;18.47;;
19810;SDS011;10065;49.632;8.346;2023-03-20T07:43:38;31.67;;;18.47;;
19810;SDS011;10065;49.632;8.346;2023-03-20T07:46:09;30.67;;;17.73;;
19810;SDS011;10065;49.632;8.346;2023-03-20T07:48:37;32.50;;;18.17;;
19810;SDS011;10065;49.632;8.346;2023-03-20T07:51:05;28.30;;;17.77;;
19810;SDS011;10065;49.632;8.346;2023-03-20T07:53:35;31.20;;;19.13;;
19810;SDS011;10065;49.632;8.346;2023-03-20T07:56:02;28.20;;;18.03;;
19810;SDS011;10065;49.632;8.346;2023-03-20T07:58:30;30.07;;;17.63;;
19810;SDS011;10065;49.632;8.346;2023-03-20T08:00:58;29.80;;;18.00;;
19810;SDS011;10065;49.632;8.346;2023-03-20T08:03:26;29.93;;;17.53;;
19810;SDS011;10065;49.632;8.346;2023-03-20T08:05:54;30.67;;;18.47;;
19810;SDS011;10065;49.632;8.346;2023-03-20T08:08:22;28.30;;;17.37;;
19810;SDS011;10065;49.632;8.346;2023-03-20T08:10:52;28.17;;;16.80;;
19810;SDS011;10065;49.632;8.346;2023-03-20T08:13:19;30.37;;;19.83;;
19810;SDS011;10065;49.632;8.346;2023-03-20T08:15:47;27.10;;;17.47;;
19810;SDS011;10065;49.632;8.346;2023-03-20T08:18:15;27.63;;;16.67;;
19810;SDS011;10065;49.632;8.346;2023-03-20T08:20:42;27.27;;;17.83;;
19810;SDS011;10065;49.632;8.346;2023-03-20T08:23:10;26.63;;;16.90;;
19810;SDS011;10065;49.632;8.346;2023-03-20T08:25:38;25.17;;;16.63;;
19810;SDS011;10065;49.632;8.346;2023-03-20T08:28:07;29.73;;;16.27;;
19810;SDS011;10065;49.632;8.346;2023-03-20T08:30:36;31.03;;;18.93;;
19810;SDS011;10065;49.632;8.346;2023-03-20T08:33:04;29.73;;;18.47;;
19810;SDS011;10065;49.632;8.346;2023-03-20T08:35:32;33.37;;;18.47;;
19810;SDS011;10065;49.632;8.346;2023-03-20T08:38:00;31.20;;;18.50;;
19810;SDS011;10065;49.632;8.346;2023-03-20T08:40:29;31.57;;;18.70;;
19810;SDS011;10065;49.632;8.346;2023-03-20T08:42:57;31.37;;;18.23;;
19810;SDS011;10065;49.632;8.346;2023-03-20T08:45:26;25.57;;;16.83;;
19810;SDS011;10065;49.632;8.346;2023-03-20T08:47:54;23.30;;;15.60;;
19810;SDS011;10065;49.632;8.346;2023-03-20T08:50:22;27.13;;;16.10;;
19810;SDS011;10065;49.632;8.346;2023-03-20T08:52:50;26.33;;;16.00;;
19810;SDS011;10065;49.632;8.346;2023-03-20T08:55:17;24.43;;;16.30;;
19810;SDS011;10065;49.632;8.346;2023-03-20T08:57:46;22.63;;;14.47;;
19810;SDS011;10065;49.632;8.346;2023-03-20T09:00:14;27.30;;;15.57;;
19810;SDS011;10065;49.632;8.346;2023-03-20T09:02:45;24.03;;;14.43;;
19810;SDS011;10065;49.632;8.346;2023-03-20T09:05:13;24.10;;;15.30;;
19810;SDS011;10065;49.632;8.346;2023-03-20T09:07:42;26.60;;;15.70;;
19810;SDS011;10065;49.632;8.346;2023-03-20T09:10:11;28.17;;;16.50;;
19810;SDS011;10065;49.632;8.346;2023-03-20T09:12:38;26.27;;;16.57;;
19810;SDS011;10065;49.632;8.346;2023-03-20T09:15:07;28.40;;;15.97;;
19810;SDS011;10065;49.632;8.346;2023-03-20T09:17:35;24.70;;;15.20;;
19810;SDS011;10065;49.632;8.346;2023-03-20T09:20:04;24.47;;;15.27;;
19810;SDS011;10065;49.632;8.346;2023-03-20T09:22:33;27.40;;;16.23;;
19810;SDS011;10065;49.632;8.346;2023-03-20T09:25:01;24.30;;;13.13;;
19810;SDS011;10065;49.632;8.346;2023-03-20T09:27:29;22.47;;;13.23;;
19810;SDS011;10065;49.632;8.346;2023-03-20T09:29:57;22.03;;;12.93;;
19810;SDS011;10065;49.632;8.346;2023-03-20T09:32:25;19.20;;;11.87;;
19810;SDS011;10065;49.632;8.346;2023-03-20T09:34:52;20.57;;;12.57;;
19810;SDS011;10065;49.632;8.346;2023-03-20T09:37:22;18.97;;;11.47;;
19810;SDS011;10065;49.632;8.346;2023-03-20T09:39:49;17.17;;;11.53;;
19810;SDS011;10065;49.632;8.346;2023-03-20T09:42:21;18.63;;;11.70;;
19810;SDS011;10065;49.632;8.346;2023-03-20T09:45:01;18.93;;;11.97;;
19810;SDS011;10065;49.632;8.346;2023-03-20T09:47:37;17.60;;;10.47;;
19810;SDS011;10065;49.632;8.346;2023-03-20T09:50:16;15.80;;;10.80;;
19810;SDS011;10065;49.632;8.346;2023-03-20T09:52:54;15.13;;;10.40;;
19810;SDS011;10065;49.632;8.346;2023-03-20T09:55:29;16.40;;;11.13;;
19810;SDS011;10065;49.632;8.346;2023-03-20T09:58:02;16.10;;;10.97;;
19810;SDS011;10065;49.632;8.346;2023-03-20T10:00:36;14.03;;;9.77;;
19810;SDS011;10065;49.632;8.346;2023-03-20T10:03:10;15.17;;;10.10;;
19810;SDS011;10065;49.632;8.346;2023-03-20T10:05:44;14.57;;;10.07;;
19810;SDS011;10065;49.632;8.346;2023-03-20T10:08:20;14.50;;;9.60;;
19810;SDS011;10065;49.632;8.346;2023-03-20T10:10:55;13.93;;;9.37;;
19810;SDS011;10065;49.632;8.346;2023-03-20T10:13:39;13.93;;;9.40;;
19810;SDS011;10065;49.632;8.346;2023-03-20T10:16:16;15.03;;;8.63;;
19810;SDS011;10065;49.632;8.346;2023-03-20T10:18:55;12.77;;;8.33;;
19810;SDS011;10065;49.632;8.346;2023-03-20T10:21:31;11.33;;;7.93;;
19810;SDS011;10065;49.632;8.346;2023-03-20T10:24:08;12.07;;;8.77;;
19810;SDS011;10065;49.632;8.346;2023-03-20T10:26:45;11.87;;;8.43;;
19810;SDS011;10065;49.632;8.346;2023-03-20T10:29:15;10.77;;;7.60;;
19810;SDS011;10065;49.632;8.346;2023-03-20T10:31:53;9.37;;;7.20;;
19810;SDS011;10065;49.632;8.346;2023-03-20T10:34:30;9.70;;;7.37;;
19810;SDS011;10065;49.632;8.346;2023-03-20T10:37:11;9.83;;;7.03;;
19810;SDS011;10065;49.632;8.346;2023-03-20T10:39:53;11.90;;;8.57;;
19810;SDS011;10065;49.632;8.346;2023-03-20T10:42:32;11.97;;;8.13;;
19810;SDS011;10065;49.632;8.346;2023-03-20T10:45:05;10.73;;;7.97;;
19810;SDS011;10065;49.632;8.346;2023-03-20T10:47:41;13.93;;;9.33;;
19810;SDS011;10065;49.632;8.346;2023-03-20T10:50:13;14.90;;;9.33;;
19810;SDS011;10065;49.632;8.346;2023-03-20T10:52:44;13.70;;;9.70;;
19810;SDS011;10065;49.632;8.346;2023-03-20T10:55:17;15.73;;;10.73;;
19810;SDS011;10065;49.632;8.346;2023-03-20T10:57:49;15.40;;;10.27;;
19810;SDS011;10065;49.632;8.346;2023-03-20T11:00:21;14.63;;;10.93;;
19810;SDS011;10065;49.632;8.346;2023-03-20T11:02:52;14.07;;;10.10;;
19810;SDS011;10065;49.632;8.346;2023-03-20T11:05:21;13.70;;;10.07;;
19810;SDS011;10065;49.632;8.346;2023-03-20T11:07:59;16.27;;;10.50;;
19810;SDS011;10065;49.632;8.346;2023-03-20T11:10:31;13.27;;;9.40;;
19810;SDS011;10065;49.632;8.346;2023-03-20T11:13:03;14.43;;;9.48;;
19810;SDS011;10065;49.632;8.346;2023-03-20T11:15:41;12.03;;;9.23;;
19810;SDS011;10065;49.632;8.346;2023-03-20T11:18:10;11.33;;;9.20;;
19810;SDS011;10065;49.632;8.346;2023-03-20T11:20:43;13.07;;;8.53;;
19810;SDS011;10065;49.632;8.346;2023-03-20T11:23:14;10.37;;;8.57;;
19810;SDS011;10065;49.632;8.346;2023-03-20T11:25:47;10.37;;;8.43;;
19810;SDS011;10065;49.632;8.346;2023-03-20T11:28:18;12.20;;;8.25;;
19810;SDS011;10065;49.632;8.346;2023-03-20T11:30:54;12.83;;;8.50;;
19810;SDS011;10065;49.632;8.346;2023-03-20T11:33:36;10.53;;;8.23;;
19810;SDS011;10065;49.632;8.346;2023-03-20T11:36:19;10.23;;;8.67;;
19810;SDS011;10065;49.632;8.346;2023-03-20T11:38:53;13.00;;;8.37;;
19810;SDS011;10065;49.632;8.346;2023-03-20T11:41:28;14.87;;;8.47;;
19810;SDS011;10065;49.632;8.346;2023-03-20T11:43:56;11.23;;;8.33;;
19810;SDS011;10065;49.632;8.346;2023-03-20T11:46:24;12.17;;;8.70;;
19810;SDS011;10065;49.632;8.346;2023-03-20T11:49:05;10.77;;;8.50;;
19810;SDS011;10065;49.632;8.346;2023-03-20T11:51:42;11.63;;;8.90;;
19810;SDS011;10065;49.632;8.346;2023-03-20T11:54:13;10.43;;;7.50;;
19810;SDS011;10065;49.632;8.346;2023-03-20T11:56:51;13.03;;;8.60;;
19810;SDS011;10065;49.632;8.346;2023-03-20T11:59:21;10.73;;;7.40;;
19810;SDS011;10065;49.632;8.346;2023-03-20T12:01:52;10.80;;;6.90;;
19810;SDS011;10065;49.632;8.346;2023-03-20T12:04:26;9.00;;;6.70;;
19810;SDS011;10065;49.632;8.346;2023-03-20T12:06:56;8.83;;;6.50;;
19810;SDS011;10065;49.632;8.346;2023-03-20T12:09:34;10.47;;;5.93;;
19810;SDS011;10065;49.632;8.346;2023-03-20T12:12:09;8.33;;;5.53;;
19810;SDS011;10065;49.632;8.346;2023-03-20T12:14:44;11.30;;;6.07;;
19810;SDS011;10065;49.632;8.346;2023-03-20T12:17:28;8.77;;;5.67;;
19810;SDS011;10065;49.632;8.346;2023-03-20T12:20:01;8.73;;;5.83;;
19810;SDS011;10065;49.632;8.346;2023-03-20T12:22:34;8.60;;;5.30;;
19810;SDS011;10065;49.632;8.346;2023-03-20T12:25:08;9.70;;;5.80;;
19810;SDS011;10065;49.632;8.346;2023-03-20T12:27:46;7.13;;;5.00;;
19810;SDS011;10065;49.632;8.346;2023-03-20T12:30:24;7.70;;;4.90;;
19810;SDS011;10065;49.632;8.346;2023-03-20T12:32:59;7.63;;;4.80;;
19810;SDS011;10065;49.632;8.346;2023-03-20T12:35:31;7.10;;;4.50;;
19810;SDS011;10065;49.632;8.346;2023-03-20T12:38:02;6.97;;;4.90;;
19810;SDS011;10065;49.632;8.346;2023-03-20T12:40:53;9.17;;;5.07;;
19810;SDS011;10065;49.632;8.346;2023-03-20T12:43:26;6.50;;;4.70;;
19810;SDS011;10065;49.632;8.346;2023-03-20T12:46:02;7.10;;;3.80;;
19810;SDS011;10065;49.632;8.346;2023-03-20T12:48:46;7.60;;;4.45;;
19810;SDS011;10065;49.632;8.346;2023-03-20T12:51:21;7.40;;;4.40;;
19810;SDS011;10065;49.632;8.346;2023-03-20T12:54:06;8.27;;;4.97;;
19810;SDS011;10065;49.632;8.346;2023-03-20T12:56:47;9.25;;;4.32;;
19810;SDS011;10065;49.632;8.346;2023-03-20T12:59:27;6.43;;;3.55;;
19810;SDS011;10065;49.632;8.346;2023-03-20T13:02:10;5.50;;;3.63;;
19810;SDS011;10065;49.632;8.346;2023-03-20T13:04:49;6.33;;;3.40;;
19810;SDS011;10065;49.632;8.346;2023-03-20T13:07:32;6.22;;;3.65;;
19810;SDS011;10065;49.632;8.346;2023-03-20T13:10:18;6.77;;;3.27;;
19810;SDS011;10065;49.632;8.346;2023-03-20T13:12:53;5.87;;;3.10;;
19810;SDS011;10065;49.632;8.346;2023-03-20T13:15:34;5.03;;;3.10;;
19810;SDS011;10065;49.632;8.346;2023-03-20T13:18:16;4.73;;;2.67;;
19810;SDS011;10065;49.632;8.346;2023-03-20T13:20:50;5.40;;;3.20;;
19810;SDS011;10065;49.632;8.346;2023-03-20T13:23:21;5.20;;;2.77;;
19810;SDS011;10065;49.632;8.346;2023-03-20T13:25:59;6.57;;;3.30;;
19810;SDS011;10065;49.632;8.346;2023-03-20T13:28:35;5.10;;;3.20;;
19810;SDS011;10065;49.632;8.346;2023-03-20T13:31:14;5.77;;;3.10;;
19810;SDS011;10065;49.632;8.346;2023-03-20T13:33:51;6.13;;;2.93;;
19810;SDS011;10065;49.632;8.346;2023-03-20T13:36:29;8.40;;;3.10;;
19810;SDS011;10065;49.632;8.346;2023-03-20T13:39:17;5.57;;;3.03;;
19810;SDS011;10065;49.632;8.346;2023-03-20T13:41:51;5.33;;;3.00;;
19810;SDS011;10065;49.632;8.346;2023-03-20T13:44:21;6.20;;;3.40;;
19810;SDS011;10065;49.632;8.346;2023-03-20T13:46:52;8.53;;;3.43;;
19810;SDS011;10065;49.632;8.346;2023-03-20T13:49:24;7.50;;;3.40;;
19810;SDS011;10065;49.632;8.346;2023-03-20T13:51:59;5.03;;;2.97;;
19810;SDS011;10065;49.632;8.346;2023-03-20T13:54:38;5.07;;;2.70;;
19810;SDS011;10065;49.632;8.346;2023-03-20T13:57:22;4.97;;;2.60;;
19810;SDS011;10065;49.632;8.346;2023-03-20T14:00:05;6.90;;;2.97;;
19810;SDS011;10065;49.632;8.346;2023-03-20T14:02:41;4.83;;;2.80;;
19810;SDS011;10065;49.632;8.346;2023-03-20T14:05:20;5.03;;;2.60;;
19810;SDS011;10065;49.632;8.346;2023-03-20T14:07:54;5.70;;;3.03;;
19810;SDS011;10065;49.632;8.346;2023-03-20T14:10:34;6.93;;;3.30;;
19810;SDS011;10065;49.632;8.346;2023-03-20T14:13:04;5.40;;;2.87;;
19810;SDS011;10065;49.632;8.346;2023-03-20T14:15:39;5.67;;;3.13;;
19810;SDS011;10065;49.632;8.346;2023-03-20T14:18:12;10.80;;;3.50;;
19810;SDS011;10065;49.632;8.346;2023-03-20T14:20:42;6.70;;;3.43;;
19810;SDS011;10065;49.632;8.346;2023-03-20T14:23:18;5.80;;;3.00;;
19810;SDS011;10065;49.632;8.346;2023-03-20T14:25:55;5.77;;;3.20;;
19810;SDS011;10065;49.632;8.346;2023-03-20T14:28:26;5.80;;;2.87;;
19810;SDS011;10065;49.632;8.346;2023-03-20T14:31:17;5.20;;;3.17;;
19810;SDS011;10065;49.632;8.346;2023-03-20T14:33:52;10.30;;;3.77;;
19810;SDS011;10065;49.632;8.346;2023-03-20T14:36:26;7.20;;;3.17;;
19810;SDS011;10065;49.632;8.346;2023-03-20T14:39:03;6.33;;;3.00;;
19810;SDS011;10065;49.632;8.346;2023-03-20T14:41:48;5.80;;;3.20;;
19810;SDS011;10065;49.632;8.346;2023-03-20T14:44:29;5.97;;;2.83;;
19810;SDS011;10065;49.632;8.346;2023-03-20T14:47:16;4.43;;;2.70;;
19810;SDS011;10065;49.632;8.346;2023-03-20T14:49:50;6.50;;;3.70;;
19810;SDS011;10065;49.632;8.346;2023-03-20T14:52:28;7.13;;;2.90;;
19810;SDS011;10065;49.632;8.346;2023-03-20T14:55:26;7.20;;;3.13;;
19810;SDS011;10065;49.632;8.346;2023-03-20T14:58:04;8.60;;;3.50;;
19810;SDS011;10065;49.632;8.346;2023-03-20T15:00:52;5.77;;;3.30;;
19810;SDS011;10065;49.632;8.346;2023-03-20T15:03:20;6.20;;;2.77;;
19810;SDS011;10065;49.632;8.346;2023-03-20T15:05:51;8.43;;;3.47;;
19810;SDS011;10065;49.632;8.346;2023-03-20T15:08:24;5.73;;;3.00;;